createdAt,value
2024-03-02T00:00:14.194Z,5.50
2024-03-02T00:02:50.631Z,4.18
2024-03-02T00:05:19.152Z,4.90
2024-03-02T00:07:49.578Z,4.10
2024-03-02T00:12:44.275Z,6.20
2024-03-02T00:15:44.710Z,7.05
2024-03-02T00:18:16.899Z,3.88
2024-03-02T00:20:43.447Z,3.75
2024-03-02T00:23:15.284Z,4.25
2024-03-02T00:25:44.215Z,3.83
2024-03-02T00:28:20.202Z,5.80
2024-03-02T00:30:59.978Z,5.32
2024-03-02T00:33:29.191Z,4.45
2024-03-02T00:35:55.986Z,5.63
2024-03-02T00:38:24.854Z,5.22
2024-03-02T00:40:51.238Z,4.13
2024-03-02T00:43:36.130Z,4.57
2024-03-02T00:46:02.728Z,4.60
2024-03-02T00:48:32.433Z,5.47
2024-03-02T00:50:58.835Z,4.25
2024-03-02T00:53:27.187Z,5.20
2024-03-02T00:55:54.009Z,4.75
2024-03-02T00:58:20.357Z,3.25
2024-03-02T01:00:46.937Z,4.07
2024-03-02T01:03:13.823Z,5.30
2024-03-02T01:05:44.439Z,4.80
2024-03-02T01:08:11.536Z,5.50
2024-03-02T01:10:38.005Z,2.95
2024-03-02T01:13:04.691Z,5.95
2024-03-02T01:15:31.189Z,3.42
2024-03-02T01:17:57.615Z,4.45
2024-03-02T01:20:23.966Z,4.63
2024-03-02T01:22:50.345Z,5.50
2024-03-02T01:25:16.709Z,5.90
2024-03-02T01:27:43.121Z,3.97
2024-03-02T01:30:10.053Z,4.88
2024-03-02T01:32:36.448Z,6.18
2024-03-02T01:35:02.812Z,5.13
2024-03-02T01:37:29.219Z,4.55
2024-03-02T01:39:55.592Z,4.22
2024-03-02T01:42:21.996Z,4.60
2024-03-02T01:44:48.513Z,3.78
2024-03-02T01:47:14.937Z,3.00
2024-03-02T01:49:42.070Z,3.40
2024-03-02T01:52:08.627Z,4.57
2024-03-02T01:54:35.605Z,4.30
2024-03-02T01:57:02.035Z,3.50
2024-03-02T01:59:28.588Z,3.40
2024-03-02T02:01:54.952Z,4.18
2024-03-02T02:04:28.032Z,4.57
2024-03-02T02:06:55.102Z,4.32
2024-03-02T02:09:21.620Z,4.68
2024-03-02T02:11:48.127Z,3.30
2024-03-02T02:14:14.547Z,4.25
2024-03-02T02:16:40.950Z,3.20
2024-03-02T02:19:07.346Z,3.58
2024-03-02T02:21:33.747Z,3.92
2024-03-02T02:24:00.219Z,3.75
2024-03-02T02:26:26.573Z,4.03
2024-03-02T02:28:52.931Z,5.65
2024-03-02T02:31:19.340Z,4.03
2024-03-02T02:33:45.797Z,3.05
2024-03-02T02:36:12.273Z,6.00
2024-03-02T02:38:41.550Z,3.33
2024-03-02T02:41:08.189Z,3.97
2024-03-02T02:43:34.580Z,4.18
2024-03-02T02:46:00.986Z,3.20
2024-03-02T02:48:27.376Z,3.95
2024-03-02T02:50:53.766Z,4.65
2024-03-02T02:53:20.320Z,3.60
2024-03-02T02:55:47.748Z,2.90
2024-03-02T02:58:14.291Z,4.47
2024-03-02T03:00:41.253Z,4.15
2024-03-02T03:03:07.658Z,3.53
2024-03-02T03:05:34.530Z,3.30
2024-03-02T03:08:00.884Z,3.33
2024-03-02T03:10:28.730Z,4.28
2024-03-02T03:12:57.292Z,3.22
2024-03-02T03:15:24.114Z,5.63
2024-03-02T03:17:51.851Z,5.50
2024-03-02T03:20:18.313Z,5.00
2024-03-02T03:22:45.115Z,3.72
2024-03-02T03:25:11.532Z,5.43
2024-03-02T03:27:38.095Z,5.07
2024-03-02T03:30:05.129Z,7.75
2024-03-02T03:32:31.638Z,4.25
2024-03-02T03:34:58.041Z,6.40
2024-03-02T03:37:25.139Z,4.32
2024-03-02T03:39:51.691Z,5.55
2024-03-02T03:42:18.215Z,4.72
2024-03-02T03:44:44.622Z,4.55
2024-03-02T03:47:11.071Z,5.40
2024-03-02T03:49:37.453Z,7.75
2024-03-02T03:52:05.063Z,7.78
2024-03-02T03:54:31.441Z,9.43
2024-03-02T03:56:57.845Z,5.05
2024-03-02T03:59:24.897Z,4.95
2024-03-02T04:01:51.429Z,10.30
2024-03-02T04:04:18.247Z,5.28
2024-03-02T04:06:45.214Z,4.43
2024-03-02T04:09:11.604Z,6.68
2024-03-02T04:11:38.034Z,4.00
2024-03-02T04:14:04.679Z,4.72
2024-03-02T04:16:31.134Z,6.05
2024-03-02T04:18:57.819Z,5.45
2024-03-02T04:21:24.303Z,8.95
2024-03-02T04:23:50.693Z,4.03
2024-03-02T04:26:20.818Z,5.07
2024-03-02T04:28:47.605Z,4.97
2024-03-02T04:31:14.012Z,4.35
2024-03-02T04:33:40.380Z,5.53
2024-03-02T04:36:09.602Z,8.68
2024-03-02T04:38:36.476Z,5.93
2024-03-02T04:41:02.948Z,6.70
2024-03-02T04:43:29.388Z,5.95
2024-03-02T04:45:55.760Z,5.57
2024-03-02T04:48:23.224Z,4.90
2024-03-02T04:50:49.594Z,6.22
2024-03-02T04:53:16.000Z,6.00
2024-03-02T04:55:42.398Z,8.27
2024-03-02T04:58:09.080Z,6.45
2024-03-02T05:00:36.440Z,7.00
2024-03-02T05:03:03.730Z,4.45
2024-03-02T05:05:30.134Z,6.32
2024-03-02T05:07:56.502Z,6.70
2024-03-02T05:10:23.107Z,6.13
2024-03-02T05:13:00.194Z,7.53
2024-03-02T05:15:27.243Z,6.85
2024-03-02T05:17:54.457Z,4.40
2024-03-02T05:20:20.992Z,5.82
2024-03-02T05:22:48.174Z,4.72
2024-03-02T05:25:14.567Z,6.22
2024-03-02T05:27:41.087Z,4.97
2024-03-02T05:30:08.379Z,6.20
2024-03-02T05:32:35.250Z,6.70
2024-03-02T05:35:01.715Z,6.65
2024-03-02T05:37:28.081Z,7.47
2024-03-02T05:39:54.740Z,7.95
2024-03-02T05:42:21.164Z,7.45
2024-03-02T05:44:47.711Z,7.40
2024-03-02T05:47:14.565Z,7.00
2024-03-02T05:49:40.955Z,6.07
2024-03-02T05:52:08.006Z,7.45
2024-03-02T05:54:34.480Z,5.18
2024-03-02T05:57:17.880Z,9.52
2024-03-02T05:59:47.488Z,7.53
2024-03-02T06:02:14.126Z,8.27
2024-03-02T06:04:40.525Z,6.10
2024-03-02T06:07:07.214Z,5.38
2024-03-02T06:09:33.701Z,5.47
2024-03-02T06:12:00.111Z,5.60
2024-03-02T06:14:26.505Z,6.80
2024-03-02T06:16:52.869Z,6.90
2024-03-02T06:19:19.234Z,6.47
2024-03-02T06:21:45.626Z,7.55
2024-03-02T06:24:14.446Z,8.20
2024-03-02T06:26:41.100Z,7.68
2024-03-02T06:29:08.333Z,7.78
2024-03-02T06:31:34.813Z,8.27
2024-03-02T06:34:01.204Z,6.07
2024-03-02T06:36:27.700Z,4.63
2024-03-02T06:38:54.095Z,4.85
2024-03-02T06:41:20.469Z,6.70
2024-03-02T06:43:46.877Z,6.70
2024-03-02T06:46:15.812Z,7.68
2024-03-02T06:48:42.362Z,5.97
2024-03-02T06:51:08.785Z,5.38
2024-03-02T06:53:37.549Z,6.20
2024-03-02T06:56:04.162Z,6.85
2024-03-02T06:58:30.629Z,5.72
2024-03-02T07:00:57.166Z,6.30
2024-03-02T07:03:23.662Z,6.40
2024-03-02T07:05:50.120Z,6.68
2024-03-02T07:08:16.699Z,6.07
2024-03-02T07:10:43.109Z,5.55
2024-03-02T07:13:09.674Z,4.80
2024-03-02T07:16:11.256Z,6.00
2024-03-02T07:18:42.891Z,4.93
2024-03-02T07:21:09.400Z,5.55
2024-03-02T07:23:36.260Z,6.78
2024-03-02T07:28:33.308Z,4.78
2024-03-02T07:31:04.094Z,6.85
2024-03-02T07:33:30.531Z,3.80
2024-03-02T07:35:57.504Z,6.13
2024-03-02T07:38:24.511Z,4.65
2024-03-02T07:40:54.276Z,5.70
2024-03-02T07:43:21.416Z,5.47
2024-03-02T07:45:48.600Z,4.78
2024-03-02T07:48:15.655Z,4.65
2024-03-02T07:50:42.563Z,3.90
2024-03-02T07:53:09.432Z,5.10
2024-03-02T07:55:35.965Z,5.30
2024-03-02T07:58:02.751Z,4.60
2024-03-02T08:00:29.504Z,4.00
2024-03-02T08:02:56.932Z,4.53
2024-03-02T08:05:23.503Z,5.85
2024-03-02T08:07:53.601Z,5.22
2024-03-02T08:10:20.551Z,3.67
2024-03-02T08:12:46.955Z,4.07
2024-03-02T08:15:15.997Z,5.30
2024-03-02T08:17:50.698Z,4.95
2024-03-02T08:20:17.265Z,5.18
2024-03-02T08:22:43.780Z,5.05
2024-03-02T08:25:10.690Z,4.88
2024-03-02T08:27:37.525Z,4.60
2024-03-02T08:30:07.477Z,6.32
2024-03-02T08:32:34.103Z,4.55
2024-03-02T08:35:00.516Z,4.18
2024-03-02T08:37:27.757Z,7.10
2024-03-02T08:39:54.295Z,4.68
2024-03-02T08:42:20.868Z,5.25
2024-03-02T08:44:47.396Z,5.05
2024-03-02T08:47:14.480Z,4.25
2024-03-02T08:49:40.899Z,5.63
2024-03-02T08:52:07.405Z,5.93
2024-03-02T08:54:35.185Z,4.82
2024-03-02T08:57:01.673Z,7.15
2024-03-02T08:59:28.940Z,6.10
2024-03-02T09:01:55.586Z,5.82
2024-03-02T09:04:24.609Z,4.78
2024-03-02T09:06:52.559Z,5.38
2024-03-02T09:09:19.028Z,4.72
2024-03-02T09:11:47.403Z,4.85
2024-03-02T09:14:15.940Z,5.22
2024-03-02T09:16:42.361Z,4.85
2024-03-02T09:19:08.981Z,5.35
2024-03-02T09:21:35.696Z,4.40
2024-03-02T09:24:03.598Z,4.38
2024-03-02T09:26:30.181Z,4.70
2024-03-02T09:28:56.641Z,5.82
2024-03-02T09:31:23.070Z,5.15
2024-03-02T09:33:49.555Z,3.60
2024-03-02T09:36:20.562Z,3.13
2024-03-02T09:38:47.187Z,4.90
2024-03-02T09:41:14.308Z,4.20
2024-03-02T09:43:41.538Z,5.28
2024-03-02T09:46:11.767Z,4.03
2024-03-02T09:48:38.818Z,4.78
2024-03-02T09:51:06.138Z,4.97
2024-03-02T09:53:34.490Z,5.20
2024-03-02T09:56:01.775Z,4.63
2024-03-02T09:58:28.422Z,3.35
2024-03-02T10:00:55.024Z,3.67
2024-03-02T10:03:24.217Z,4.15
2024-03-02T10:05:50.614Z,3.88
2024-03-02T10:08:16.984Z,5.50
2024-03-02T10:10:44.576Z,4.43
2024-03-02T10:13:12.315Z,4.68
2024-03-02T10:15:41.745Z,4.40
2024-03-02T10:18:17.153Z,3.95
2024-03-02T10:20:43.568Z,4.25
2024-03-02T10:23:18.316Z,6.82
2024-03-02T10:25:52.056Z,5.25
2024-03-02T10:28:24.380Z,4.90
2024-03-02T10:30:52.435Z,4.93
2024-03-02T10:33:19.120Z,4.22
2024-03-02T10:35:45.706Z,4.22
2024-03-02T10:38:12.461Z,3.47
2024-03-02T10:40:38.977Z,4.53
2024-03-02T10:43:07.001Z,5.40
2024-03-02T10:45:33.697Z,3.90
2024-03-02T10:48:02.749Z,5.03
2024-03-02T10:50:29.872Z,4.50
2024-03-02T10:52:56.391Z,4.03
2024-03-02T10:55:22.993Z,4.15
2024-03-02T10:57:55.061Z,3.38
2024-03-02T11:00:27.875Z,4.65
2024-03-02T11:03:03.012Z,3.05
2024-03-02T11:05:35.243Z,4.35
2024-03-02T11:08:06.546Z,5.25
2024-03-02T11:10:38.359Z,4.07
2024-03-02T11:13:12.421Z,3.83
2024-03-02T11:15:41.292Z,4.18
2024-03-02T11:18:10.098Z,3.55
2024-03-02T11:20:41.165Z,3.63
2024-03-02T11:23:08.936Z,3.55
2024-03-02T11:25:36.437Z,3.78
2024-03-02T11:28:04.619Z,3.92
2024-03-02T11:30:34.938Z,6.20
2024-03-02T11:33:13.079Z,4.10
2024-03-02T11:35:47.820Z,5.20
2024-03-02T11:38:14.284Z,4.03
2024-03-02T11:40:41.803Z,4.05
2024-03-02T11:43:11.845Z,3.22
2024-03-02T11:45:44.205Z,4.38
2024-03-02T11:48:14.663Z,2.80
2024-03-02T11:50:49.890Z,3.20
2024-03-02T11:53:17.066Z,3.50
2024-03-02T11:55:47.377Z,2.13
2024-03-02T11:58:14.659Z,2.97
2024-03-02T12:00:41.137Z,3.63
2024-03-02T12:03:13.890Z,3.85
2024-03-02T12:05:40.473Z,3.97
2024-03-02T12:08:08.179Z,2.40
2024-03-02T12:10:36.148Z,5.10
2024-03-02T12:13:12.203Z,3.08
2024-03-02T12:15:40.154Z,3.10
2024-03-02T12:18:07.379Z,4.13
2024-03-02T12:20:34.959Z,3.95
2024-03-02T12:23:06.644Z,3.42
2024-03-02T12:25:36.619Z,3.85
2024-03-02T12:28:03.920Z,3.58
2024-03-02T12:30:31.678Z,5.55
2024-03-02T12:32:58.159Z,4.80
2024-03-02T12:35:25.899Z,5.35
2024-03-02T12:40:45.527Z,3.75
2024-03-02T12:43:12.098Z,4.28
2024-03-02T12:45:38.638Z,5.43
2024-03-02T12:48:06.131Z,3.08
2024-03-02T12:50:34.704Z,3.47
2024-03-02T12:53:01.165Z,3.15
2024-03-02T12:55:29.796Z,3.28
2024-03-02T12:57:56.320Z,2.55
2024-03-02T13:00:23.726Z,4.07
2024-03-02T13:02:51.632Z,3.40
2024-03-02T13:05:18.208Z,4.40
2024-03-02T13:07:46.213Z,2.55
2024-03-02T13:10:13.748Z,2.85
2024-03-02T13:12:40.584Z,2.28
2024-03-02T13:15:07.241Z,2.50
2024-03-02T13:17:37.800Z,2.78
2024-03-02T13:20:09.278Z,3.38
2024-03-02T13:22:36.162Z,3.20
2024-03-02T13:25:05.123Z,2.10
2024-03-02T13:27:33.173Z,3.17
2024-03-02T13:29:59.852Z,4.28
2024-03-02T13:32:26.891Z,5.07
2024-03-02T13:34:53.577Z,2.95
2024-03-02T13:37:24.076Z,3.15
2024-03-02T13:39:50.757Z,4.10
2024-03-02T13:42:17.517Z,3.47
2024-03-02T13:44:48.495Z,3.45
2024-03-02T13:47:15.222Z,7.18
2024-03-02T13:49:44.930Z,5.57
2024-03-02T13:52:14.106Z,4.13
2024-03-02T13:54:48.150Z,2.30
2024-03-02T13:57:14.934Z,3.42
2024-03-02T13:59:43.488Z,3.67
2024-03-02T14:02:10.499Z,2.80
2024-03-02T14:04:37.743Z,6.18
2024-03-02T14:07:04.880Z,4.07
2024-03-02T14:09:31.571Z,3.05
2024-03-02T14:11:58.323Z,3.80
2024-03-02T14:14:25.264Z,3.08
2024-03-02T14:16:51.844Z,2.72
2024-03-02T14:19:18.519Z,2.90
2024-03-02T14:21:45.001Z,2.72
2024-03-02T14:24:11.418Z,2.65
2024-03-02T14:26:38.260Z,4.43
2024-03-02T14:29:05.135Z,2.50
2024-03-02T14:31:34.465Z,2.92
2024-03-02T14:34:01.169Z,4.30
2024-03-02T14:36:29.188Z,2.78
2024-03-02T14:38:56.303Z,2.83
2024-03-02T14:41:24.213Z,3.67
2024-03-02T14:43:50.754Z,3.65
2024-03-02T14:46:17.840Z,3.85
2024-03-02T14:48:44.835Z,3.75
2024-03-02T14:51:11.650Z,3.58
2024-03-02T14:53:38.975Z,4.35
2024-03-02T14:56:06.542Z,2.33
2024-03-02T14:58:32.942Z,2.97
2024-03-02T15:00:59.476Z,4.53
2024-03-02T15:03:25.990Z,3.38
2024-03-02T15:05:52.836Z,2.97
2024-03-02T15:08:19.248Z,4.20
2024-03-02T15:10:46.086Z,3.72
2024-03-02T15:13:12.780Z,2.95
2024-03-02T15:15:39.230Z,3.65
2024-03-02T15:18:06.859Z,2.53
2024-03-02T15:20:33.511Z,3.03
2024-03-02T15:23:00.281Z,4.15
2024-03-02T15:25:26.654Z,2.83
2024-03-02T15:27:53.102Z,4.55
2024-03-02T15:30:19.461Z,3.88
2024-03-02T15:32:45.885Z,2.85
2024-03-02T15:35:12.273Z,3.75
2024-03-02T15:37:38.659Z,3.63
2024-03-02T15:40:09.559Z,3.30
2024-03-02T15:42:36.322Z,4.45
2024-03-02T15:45:03.286Z,2.55
2024-03-02T15:47:29.987Z,2.70
2024-03-02T15:49:56.497Z,2.85
2024-03-02T15:52:23.345Z,3.15
2024-03-02T15:54:51.266Z,3.10
2024-03-02T15:57:17.986Z,3.45
2024-03-02T15:59:45.102Z,2.90
2024-03-02T16:02:11.611Z,3.33
2024-03-02T16:04:38.289Z,2.65
2024-03-02T16:07:04.900Z,2.72
2024-03-02T16:09:31.415Z,2.35
2024-03-02T16:11:57.934Z,2.20
2024-03-02T16:14:24.501Z,3.35
2024-03-02T16:16:50.978Z,2.92
2024-03-02T16:19:25.533Z,3.03
2024-03-02T16:22:01.909Z,2.80
2024-03-02T16:24:28.605Z,3.75
2024-03-02T16:26:55.075Z,3.15
2024-03-02T16:29:21.467Z,3.60
2024-03-02T16:31:47.851Z,2.97
2024-03-02T16:34:14.421Z,2.20
2024-03-02T16:36:41.936Z,2.67
2024-03-02T16:39:09.797Z,3.63
2024-03-02T16:41:36.360Z,2.50
2024-03-02T16:44:04.614Z,2.55
2024-03-02T16:46:32.763Z,2.78
2024-03-02T16:48:59.335Z,2.58
2024-03-02T16:51:28.789Z,3.00
2024-03-02T16:53:55.417Z,2.55
2024-03-02T16:56:21.868Z,2.72
2024-03-02T16:58:48.274Z,3.30
2024-03-02T17:01:14.722Z,3.15
2024-03-02T17:03:41.215Z,4.38
2024-03-02T17:06:07.624Z,4.22
2024-03-02T17:08:34.130Z,3.55
2024-03-02T17:11:00.649Z,3.65
2024-03-02T17:13:27.223Z,3.92
2024-03-02T17:15:53.624Z,3.78
2024-03-02T17:18:20.065Z,3.88
2024-03-02T17:20:46.470Z,2.85
2024-03-02T17:23:12.946Z,4.20
2024-03-02T17:25:39.401Z,4.80
2024-03-02T17:28:22.853Z,3.88
2024-03-02T17:30:49.430Z,4.18
2024-03-02T17:33:16.068Z,4.15
2024-03-02T17:35:42.506Z,4.03
2024-03-02T17:38:08.888Z,3.75
2024-03-02T17:40:35.233Z,2.95
2024-03-02T17:43:01.755Z,3.50
2024-03-02T17:45:28.213Z,3.53
2024-03-02T17:47:54.668Z,3.78
2024-03-02T17:50:21.064Z,3.17
2024-03-02T17:52:48.630Z,3.42
2024-03-02T17:55:15.378Z,4.13
2024-03-02T17:57:41.770Z,3.65
2024-03-02T18:00:14.983Z,4.47
2024-03-02T18:02:41.869Z,3.85
2024-03-02T18:05:09.832Z,4.10
2024-03-02T18:07:37.485Z,4.05
2024-03-02T18:10:04.968Z,3.45
2024-03-02T18:12:31.505Z,3.95
2024-03-02T18:14:57.928Z,4.47
2024-03-02T18:17:24.457Z,3.53
2024-03-02T18:19:52.069Z,4.20
2024-03-02T18:22:19.199Z,3.70
2024-03-02T18:24:48.480Z,3.88
2024-03-02T18:27:14.937Z,3.90
2024-03-02T18:29:41.486Z,2.72
2024-03-02T18:32:07.865Z,3.05
2024-03-02T18:34:39.117Z,3.88
2024-03-02T18:37:07.615Z,2.88
2024-03-02T18:39:34.157Z,3.17
2024-03-02T18:42:00.637Z,3.60
2024-03-02T18:44:27.061Z,3.95
2024-03-02T18:46:53.475Z,3.75
2024-03-02T18:49:20.583Z,4.57
2024-03-02T18:51:46.990Z,2.53
2024-03-02T18:54:13.730Z,3.08
2024-03-02T18:56:40.640Z,4.28
2024-03-02T18:59:07.110Z,4.25
2024-03-02T19:01:33.698Z,3.38
2024-03-02T19:04:00.342Z,3.03
2024-03-02T19:06:26.925Z,3.60
2024-03-02T19:08:53.333Z,3.33
2024-03-02T19:11:19.858Z,4.88
2024-03-02T19:13:46.377Z,3.75
2024-03-02T19:16:13.816Z,4.65
2024-03-02T19:18:41.013Z,3.58
2024-03-02T19:21:10.541Z,3.70
2024-03-02T19:23:43.399Z,4.07
2024-03-02T19:26:17.090Z,4.57
2024-03-02T19:28:43.521Z,3.75
2024-03-02T19:31:09.945Z,5.07
2024-03-02T19:33:36.405Z,4.72
2024-03-02T19:36:04.266Z,4.28
2024-03-02T19:38:30.958Z,4.68
2024-03-02T19:40:57.397Z,6.25
2024-03-02T19:43:23.802Z,4.45
2024-03-02T19:45:50.347Z,4.57
2024-03-02T19:48:18.249Z,6.78
2024-03-02T19:50:44.900Z,4.40
2024-03-02T19:53:11.286Z,5.30
2024-03-02T19:55:42.219Z,4.00
2024-03-02T19:58:08.639Z,5.50
2024-03-02T20:00:35.054Z,5.72
2024-03-02T20:03:01.461Z,5.43
2024-03-02T20:05:27.912Z,6.75
2024-03-02T20:07:54.275Z,4.32
2024-03-02T20:10:21.251Z,4.93
2024-03-02T20:12:47.755Z,5.30
2024-03-02T20:15:14.241Z,5.72
2024-03-02T20:17:40.702Z,5.15
2024-03-02T20:20:09.864Z,4.63
2024-03-02T20:22:36.419Z,3.80
2024-03-02T20:25:03.366Z,3.65
2024-03-02T20:27:29.769Z,4.20
2024-03-02T20:29:56.193Z,4.60
2024-03-02T20:32:22.580Z,4.85
2024-03-02T20:34:49.373Z,4.68
2024-03-02T20:37:15.845Z,4.20
2024-03-02T20:39:42.327Z,6.55
2024-03-02T20:42:08.694Z,4.97
2024-03-02T20:44:35.150Z,5.15
2024-03-02T20:47:01.510Z,3.75
2024-03-02T20:49:31.041Z,5.97
2024-03-02T20:51:58.628Z,5.28
2024-03-02T20:54:25.144Z,7.03
2024-03-02T20:56:52.922Z,5.85
2024-03-02T20:59:19.436Z,6.13
2024-03-02T21:01:48.725Z,5.60
2024-03-02T21:04:15.841Z,5.97
2024-03-02T21:06:42.969Z,5.18
2024-03-02T21:09:09.897Z,6.70
2024-03-02T21:11:39.004Z,5.43
2024-03-02T21:14:05.663Z,5.28
2024-03-02T21:16:32.042Z,4.32
2024-03-02T21:18:58.401Z,4.25
2024-03-02T21:21:24.778Z,5.57
2024-03-02T21:23:51.421Z,6.05
2024-03-02T21:26:17.808Z,5.05
2024-03-02T21:28:44.204Z,6.40
2024-03-02T21:31:16.318Z,5.30
2024-03-02T21:33:43.227Z,6.65
2024-03-02T21:36:09.634Z,6.00
2024-03-02T21:38:36.061Z,4.97
2024-03-02T21:41:02.628Z,4.15
2024-03-02T21:43:29.025Z,4.80
2024-03-02T21:45:55.486Z,5.45
2024-03-02T21:48:23.191Z,5.45
2024-03-02T21:50:49.550Z,6.00
2024-03-02T21:53:16.547Z,6.25
2024-03-02T21:55:44.052Z,5.68
2024-03-02T21:58:10.506Z,5.47
2024-03-02T22:00:37.134Z,5.15
2024-03-02T22:03:04.261Z,5.13
2024-03-02T22:05:30.736Z,7.00
2024-03-02T22:07:57.190Z,5.18
2024-03-02T22:10:23.745Z,5.35
2024-03-02T22:12:50.141Z,4.90
2024-03-02T22:15:16.516Z,4.88
2024-03-02T22:17:42.919Z,5.43
2024-03-02T22:20:11.685Z,6.82
2024-03-02T22:22:40.389Z,5.75
2024-03-02T22:25:07.880Z,4.68
2024-03-02T22:27:37.457Z,4.75
2024-03-02T22:30:06.289Z,4.90
2024-03-02T22:32:32.706Z,6.45
2024-03-02T22:34:59.116Z,5.95
2024-03-02T22:37:25.487Z,6.13
2024-03-02T22:39:51.889Z,9.55
2024-03-02T22:42:18.246Z,5.55
2024-03-02T22:44:44.619Z,6.28
2024-03-02T22:47:12.844Z,7.40
2024-03-02T22:49:40.133Z,6.15
2024-03-02T22:52:06.716Z,5.00
2024-03-02T22:54:33.162Z,5.65
2024-03-02T22:56:59.921Z,6.13
2024-03-02T22:59:26.320Z,5.03
2024-03-02T23:01:52.851Z,5.25
2024-03-02T23:04:19.382Z,8.30
2024-03-02T23:06:45.939Z,7.30
2024-03-02T23:09:12.700Z,7.68
2024-03-02T23:11:39.862Z,7.80
2024-03-02T23:14:06.290Z,7.53
2024-03-02T23:16:35.713Z,6.10
2024-03-02T23:19:02.836Z,6.47
2024-03-02T23:21:29.320Z,5.15
2024-03-02T23:23:55.766Z,5.70
2024-03-02T23:26:23.380Z,5.53
2024-03-02T23:28:49.746Z,5.80
2024-03-02T23:31:16.770Z,7.28
2024-03-02T23:33:43.262Z,6.35
2024-03-02T23:36:09.651Z,5.40
2024-03-02T23:38:36.061Z,7.22
2024-03-02T23:41:08.315Z,7.60
2024-03-02T23:43:38.364Z,7.40
2024-03-02T23:46:06.125Z,6.18
2024-03-02T23:48:32.529Z,6.32
2024-03-02T23:50:58.913Z,6.53
2024-03-02T23:53:25.317Z,7.80
2024-03-02T23:55:52.989Z,6.57
2024-03-02T23:58:20.228Z,7.63
